St Cloud Regional Airport
KSTC : now visible

Airfield :











YOU CAN JOIN US ON...

 
LOGIN :

Register | Disclaimer

   EN    FR    IT 

 









Legend :    VFR   Marginal VFR   IFR   Intensive IFR   Very Intensive IFR
Visi :
Ceiling :
>= 8 km
>= 3000ft
5 to 8 km
1000 to 3000 ft
1500m to 5 km
500 to 1000 ft
800 to 1500m
200 to 500 ft
< 800m
< 200 ft
Symbols :   Thunderstorms  Fog  Heavy snow  Heavy precipitations  Wind > 20 kt






- Airport Elevation : 1031 ft
- IATA code : STC


KSTC - St Cloud Regional

CURRENT METAR :
  • 260353Z 08005KT 10SM SCT043 BKN060 OVC120 21/17 A2987 RMK AO2 SLP118 T02110167 $

EXPIRED METARs :
  • 260253Z 07004KT 10SM FEW065 SCT100 21/17 A2986 RMK AO2 SLP115 T02110172 51012 $
  • 260153Z 09004KT 10SM SCT033 BKN040 OVC075 22/17 A2985 RMK AO2 SLP113 T02170172 $

TAF KSTC
Valid from the 26 at 00:00 until the 27 at 00:00 UTC


252320Z 2600/2624 00000KT P6SM BKN040 BKN080
FM260600 00000KT 6SM -SHRA BR OVC035
FM260900 00000KT 5SM -SHRA BR OVC014
TEMPO 2609/2613 3SM BR OVC008
FM261600 24007KT P6SM OVC012
FM262200 28006KT P6SM BKN025
KZMP FIR / North America



MET'MAP, your aeronautical weather chart ! - Copyright ORBIFLY December 2007 - Disclaimer

ORBIFLY MET'MAP TEAM :

Programming & Development : Alexandra Zaïnal
Concept & original design : Baudouin d'Aumeries
Assistance for programming : Marc-Olivier Méhu
Technical & hardware support : Manuel Goepfert

Contact : metmap@orbifly.com




SOURCES & CREDITS :

   NOAA       Earth
Advisory